Time;durP1;ratioP1;P1;durP2;ratioP2;P2;SDS_P1;SDS_P2;PMS_P1;PMS_P2;Temp;Humidity;BMP_temperature;BMP_pressure;BME280_temperature;BME280_humidity;BME280_pressure;Samples;Min_cycle;Max_cycle;Signal;HPM_P1;HPM_P2
2022/06/29 00:01:26;;;;;;;5.38;3.28;;;17.70;99.90;;;;;;5017261;28;20049;-72
2022/06/29 00:03:54;;;;;;;5.50;2.95;;;17.70;99.90;;;;;;5014681;28;20131;-68
2022/06/29 00:06:21;;;;;;;8.77;3.38;;;17.60;99.90;;;;;;5016890;28;20045;-72
2022/06/29 00:08:48;;;;;;;4.72;3.40;;;17.60;99.90;;;;;;5024474;28;20104;-67
2022/06/29 00:11:15;;;;;;;4.72;2.95;;;17.60;99.90;;;;;;5015355;28;20056;-67
2022/06/29 00:13:42;;;;;;;6.18;3.13;;;17.60;99.90;;;;;;5007427;28;20499;-66
2022/06/29 00:16:09;;;;;;;3.35;2.33;;;17.70;99.90;;;;;;5022715;28;20073;-66
2022/06/29 00:18:37;;;;;;;3.97;2.85;;;17.70;99.90;;;;;;5018343;28;20103;-67
2022/06/29 00:21:04;;;;;;;6.50;3.67;;;17.80;99.90;;;;;;5013016;28;20061;-66
2022/06/29 00:23:31;;;;;;;4.03;3.38;;;17.80;99.90;;;;;;5019301;28;20444;-67
2022/06/29 00:25:58;;;;;;;3.95;3.05;;;17.80;99.90;;;;;;5021965;28;20127;-66
2022/06/29 00:28:25;;;;;;;5.10;2.95;;;17.80;99.90;;;;;;5013053;28;20156;-74
2022/06/29 00:30:52;;;;;;;5.43;2.55;;;17.80;99.90;;;;;;5020390;28;20053;-66
2022/06/29 00:33:19;;;;;;;4.95;2.95;;;17.90;99.90;;;;;;5014057;28;20444;-69
2022/06/29 00:35:46;;;;;;;2.83;2.63;;;17.90;99.90;;;;;;5015468;28;20103;-70
2022/06/29 00:38:14;;;;;;;5.00;2.90;;;17.90;99.90;;;;;;5014101;28;20046;-73
2022/06/29 00:40:41;;;;;;;3.67;2.88;;;18.00;99.90;;;;;;5007259;28;20053;-67
2022/06/29 00:43:08;;;;;;;4.95;3.15;;;18.00;99.90;;;;;;5015620;28;20443;-68
2022/06/29 00:45:35;;;;;;;3.55;3.22;;;18.00;99.90;;;;;;5009600;28;20045;-66
2022/06/29 00:48:03;;;;;;;7.55;4.00;;;18.00;99.90;;;;;;5017600;28;20165;-74
2022/06/29 00:50:33;;;;;;;5.07;2.92;;;18.00;99.90;;;;;;5022505;28;20044;-68
2022/06/29 00:53:03;;;;;;;6.05;3.05;;;18.00;99.90;;;;;;5013240;28;20046;-66
2022/06/29 00:55:35;;;;;;;4.70;2.75;;;18.10;99.90;;;;;;5013164;28;20046;-71
2022/06/29 00:58:05;;;;;;;6.85;3.03;;;18.10;99.90;;;;;;5022562;28;20045;-72
2022/06/29 01:00:33;;;;;;;8.30;3.40;;;18.00;99.90;;;;;;5035888;28;20487;-69
2022/06/29 01:03:00;;;;;;;5.25;2.95;;;18.00;99.90;;;;;;5022400;28;20781;-68
2022/06/29 01:05:31;;;;;;;5.88;4.05;;;18.00;99.90;;;;;;5018123;28;20399;-67
2022/06/29 01:07:58;;;;;;;6.53;3.47;;;18.00;99.90;;;;;;5019906;28;20502;-71
2022/06/29 01:10:26;;;;;;;4.57;3.22;;;18.00;99.90;;;;;;5012734;28;20038;-69
2022/06/29 01:12:54;;;;;;;6.28;3.63;;;18.00;99.90;;;;;;4996858;28;20061;-66
2022/06/29 01:15:21;;;;;;;8.48;3.78;;;18.00;99.90;;;;;;4995414;28;20419;-72
2022/06/29 01:17:48;;;;;;;7.43;3.50;;;18.00;99.90;;;;;;4995179;28;20463;-66
2022/06/29 01:20:16;;;;;;;5.28;3.30;;;18.00;99.90;;;;;;5004921;28;20154;-67
2022/06/29 01:22:43;;;;;;;5.60;3.60;;;18.00;99.90;;;;;;4998417;28;20428;-69
2022/06/29 01:25:10;;;;;;;7.82;3.83;;;18.00;99.90;;;;;;4996533;28;20042;-68
2022/06/29 01:27:37;;;;;;;5.80;4.18;;;18.00;99.90;;;;;;4998117;28;20708;-68
2022/06/29 01:30:07;;;;;;;5.15;3.75;;;18.00;99.90;;;;;;4996528;28;20177;-68
2022/06/29 01:32:38;;;;;;;10.85;4.75;;;18.00;99.90;;;;;;5000019;28;20094;-70
2022/06/29 01:35:08;;;;;;;4.57;4.13;;;17.90;99.90;;;;;;5001360;28;20108;-70
2022/06/29 01:37:35;;;;;;;7.10;4.63;;;17.90;99.90;;;;;;5000885;28;20503;-66
2022/06/29 01:40:03;;;;;;;9.30;5.75;;;18.00;99.90;;;;;;4991495;28;20481;-70
2022/06/29 01:42:30;;;;;;;5.20;4.70;;;18.00;99.90;;;;;;4994840;28;20464;-72
2022/06/29 01:44:57;;;;;;;6.80;3.60;;;18.00;99.90;;;;;;4994862;28;20464;-67
2022/06/29 01:47:24;;;;;;;7.63;4.18;;;17.90;99.90;;;;;;5007043;28;20125;-66
2022/06/29 01:49:51;;;;;;;4.93;4.03;;;17.90;99.90;;;;;;4990962;28;20065;-71
2022/06/29 01:52:19;;;;;;;6.50;4.05;;;17.90;99.90;;;;;;4990083;28;20050;-71
2022/06/29 01:54:46;;;;;;;3.97;3.50;;;17.90;99.90;;;;;;4998068;28;20079;-68
2022/06/29 01:57:12;;;;;;;4.10;3.78;;;17.90;99.90;;;;;;4999815;28;20054;-71
2022/06/29 01:59:39;;;;;;;4.45;4.05;;;18.00;99.90;;;;;;4992733;28;20137;-68
2022/06/29 02:02:07;;;;;;;6.72;4.05;;;18.00;99.90;;;;;;4993971;28;20463;-67
2022/06/29 02:04:34;;;;;;;19.15;4.93;;;18.00;99.90;;;;;;5002875;28;20100;-71
2022/06/29 02:07:02;;;;;;;4.80;3.97;;;18.00;99.90;;;;;;4995507;28;20042;-67
2022/06/29 02:09:28;;;;;;;9.38;5.00;;;18.00;99.90;;;;;;4998001;28;20132;-73
2022/06/29 02:11:56;;;;;;;8.68;5.38;;;17.90;99.90;;;;;;4996062;28;20042;-72
2022/06/29 02:14:22;;;;;;;6.93;3.15;;;17.90;99.90;;;;;;5001600;28;20046;-69
2022/06/29 02:16:49;;;;;;;7.07;3.47;;;17.90;99.90;;;;;;5002247;28;20050;-66
2022/06/29 02:19:16;;;;;;;4.07;3.25;;;17.90;99.90;;;;;;4997683;28;20404;-70
2022/06/29 02:21:43;;;;;;;10.30;4.78;;;17.90;99.90;;;;;;5000051;28;20045;-66
2022/06/29 02:24:10;;;;;;;7.30;4.18;;;17.90;99.90;;;;;;5002021;28;20061;-67
2022/06/29 02:26:37;;;;;;;4.00;3.38;;;18.00;99.90;;;;;;4997298;28;20463;-74
2022/06/29 02:29:04;;;;;;;7.32;3.85;;;18.00;99.90;;;;;;4997771;28;20754;-66
2022/06/29 02:37:02;;;;;;;5.68;3.47;;;18.00;99.90;;;;;;4996949;28;20054;-66
2022/06/29 02:39:29;;;;;;;4.25;3.17;;;18.00;99.90;;;;;;5004558;28;20091;-70
2022/06/29 02:41:56;;;;;;;6.22;2.88;;;18.00;99.90;;;;;;4995507;28;20043;-67
2022/06/29 02:44:23;;;;;;;3.45;3.15;;;18.00;99.90;;;;;;5003985;28;20077;-66
2022/06/29 02:46:50;;;;;;;5.65;2.70;;;18.00;99.90;;;;;;5000813;28;20080;-68
2022/06/29 02:49:17;;;;;;;5.90;3.13;;;18.10;99.90;;;;;;5001805;28;20409;-66
2022/06/29 02:51:44;;;;;;;6.85;3.50;;;18.00;99.90;;;;;;5002918;28;20069;-78
2022/06/29 02:54:11;;;;;;;4.88;3.40;;;18.00;99.90;;;;;;4993964;28;20069;-70
2022/06/29 02:56:38;;;;;;;3.05;2.85;;;18.00;99.90;;;;;;4992046;28;20171;-66
2022/06/29 02:59:05;;;;;;;4.65;2.83;;;18.00;99.90;;;;;;5000031;28;20572;-68
2022/06/29 03:01:32;;;;;;;4.70;2.28;;;18.00;99.90;;;;;;4988434;28;20046;-66
2022/06/29 03:03:59;;;;;;;7.93;3.58;;;18.00;99.90;;;;;;4989878;28;20042;-67
2022/06/29 03:06:26;;;;;;;3.20;2.90;;;18.10;99.90;;;;;;4995054;28;20101;-69
2022/06/29 03:08:53;;;;;;;5.05;2.95;;;18.10;99.90;;;;;;5003911;28;20058;-66
2022/06/29 03:11:20;;;;;;;5.13;4.55;;;18.10;99.90;;;;;;5008123;28;20050;-66
2022/06/29 03:13:47;;;;;;;6.07;3.10;;;18.10;99.90;;;;;;4999580;28;20109;-67
2022/06/29 03:16:14;;;;;;;7.05;3.45;;;18.10;99.90;;;;;;5000014;28;20046;-68
2022/06/29 03:18:41;;;;;;;3.72;3.42;;;18.10;99.90;;;;;;4998544;28;20081;-66
2022/06/29 03:21:08;;;;;;;8.48;3.08;;;18.10;99.90;;;;;;5001699;28;20076;-72
2022/06/29 03:23:35;;;;;;;6.60;4.22;;;18.10;99.90;;;;;;5002187;28;20042;-66
2022/06/29 03:26:02;;;;;;;3.78;2.80;;;18.10;99.90;;;;;;5000062;28;20053;-67
2022/06/29 03:28:29;;;;;;;5.15;3.28;;;18.00;99.90;;;;;;5004294;28;20046;-66
2022/06/29 03:30:56;;;;;;;8.75;4.40;;;18.10;99.90;;;;;;4998994;28;20041;-66
2022/06/29 03:33:22;;;;;;;9.82;4.05;;;18.10;99.90;;;;;;5004531;28;20117;-68
2022/06/29 03:35:49;;;;;;;4.97;3.47;;;18.10;99.90;;;;;;4998900;28;20557;-67
2022/06/29 03:38:16;;;;;;;5.40;3.55;;;18.10;99.90;;;;;;5002595;28;20053;-66
2022/06/29 03:40:43;;;;;;;4.53;2.97;;;18.10;99.90;;;;;;4995168;28;20053;-69
2022/06/29 03:43:10;;;;;;;5.07;3.72;;;18.00;99.90;;;;;;4999820;28;20069;-66
2022/06/29 03:45:37;;;;;;;7.63;3.38;;;18.00;99.90;;;;;;4995187;28;20057;-65
2022/06/29 03:48:05;;;;;;;4.50;3.40;;;17.90;99.90;;;;;;5000570;28;20215;-70
2022/06/29 03:50:32;;;;;;;9.05;4.10;;;17.90;99.90;;;;;;5004288;28;20100;-70
2022/06/29 03:52:59;;;;;;;3.88;3.50;;;17.90;99.90;;;;;;5005013;28;20137;-72
2022/06/29 03:55:26;;;;;;;4.22;3.83;;;17.80;99.90;;;;;;5001256;28;20054;-66
2022/06/29 03:57:53;;;;;;;7.45;4.07;;;17.80;99.90;;;;;;4997101;28;20073;-66
2022/06/29 04:00:20;;;;;;;4.25;3.20;;;17.80;99.90;;;;;;4996263;28;20046;-67
2022/06/29 04:02:47;;;;;;;6.60;3.13;;;17.80;99.90;;;;;;5002263;28;20076;-66
2022/06/29 04:05:15;;;;;;;7.72;4.03;;;17.70;99.90;;;;;;5001339;28;20663;-66
2022/06/29 04:07:42;;;;;;;4.82;3.47;;;17.70;99.90;;;;;;4993584;28;20058;-67
2022/06/29 04:10:09;;;;;;;5.60;3.95;;;17.70;99.90;;;;;;5002963;28;20049;-67
2022/06/29 04:12:37;;;;;;;5.65;4.75;;;17.70;99.90;;;;;;5003949;28;20200;-70
2022/06/29 04:15:05;;;;;;;4.20;3.80;;;17.70;99.90;;;;;;5004621;28;20164;-66
2022/06/29 04:17:33;;;;;;;8.70;4.20;;;17.70;99.90;;;;;;4991896;28;20160;-67
2022/06/29 04:20:00;;;;;;;4.95;4.32;;;17.60;99.90;;;;;;5001222;28;20086;-66
2022/06/29 04:22:28;;;;;;;5.03;4.50;;;17.70;99.90;;;;;;4993698;28;20133;-67
2022/06/29 04:24:55;;;;;;;4.88;3.53;;;17.70;99.90;;;;;;4992710;28;20046;-66
2022/06/29 04:27:22;;;;;;;6.38;3.45;;;17.60;99.90;;;;;;4994058;28;20404;-66
2022/06/29 04:29:49;;;;;;;4.18;3.78;;;17.70;99.90;;;;;;4997597;28;20127;-66
2022/06/29 04:32:16;;;;;;;4.93;3.70;;;17.70;99.90;;;;;;5006309;28;20058;-69
2022/06/29 04:34:43;;;;;;;6.88;4.50;;;17.70;99.90;;;;;;5008447;28;20073;-66
2022/06/29 04:37:10;;;;;;;8.15;4.65;;;17.70;99.90;;;;;;5005910;28;20054;-69
2022/06/29 04:39:37;;;;;;;8.88;4.60;;;17.70;99.90;;;;;;5001735;28;20046;-66
2022/06/29 04:42:04;;;;;;;6.20;3.65;;;17.70;99.90;;;;;;5001599;28;20449;-66
2022/06/29 04:44:31;;;;;;;11.57;4.90;;;17.70;99.90;;;;;;5002119;28;20367;-66
2022/06/29 04:46:58;;;;;;;5.07;3.63;;;17.70;99.90;;;;;;4998645;28;20058;-67
2022/06/29 04:49:25;;;;;;;5.40;3.50;;;17.70;99.90;;;;;;4996434;28;20133;-67
2022/06/29 04:51:52;;;;;;;4.50;4.00;;;17.70;99.90;;;;;;4999245;28;20490;-69
2022/06/29 04:54:19;;;;;;;11.25;4.43;;;17.60;99.90;;;;;;5005638;28;20062;-69
2022/06/29 04:56:46;;;;;;;8.18;3.65;;;17.60;99.90;;;;;;4999251;28;20128;-66
2022/06/29 04:59:13;;;;;;;7.13;4.25;;;17.60;99.90;;;;;;5002477;28;20053;-66
2022/06/29 05:01:41;;;;;;;4.65;4.15;;;17.60;99.90;;;;;;4997526;28;20053;-67
2022/06/29 05:04:08;;;;;;;6.97;4.47;;;17.60;99.90;;;;;;4997060;28;20072;-66
2022/06/29 05:06:35;;;;;;;5.93;3.55;;;17.60;99.90;;;;;;4992370;28;20043;-70
2022/06/29 05:09:02;;;;;;;7.35;5.40;;;17.60;99.90;;;;;;4998331;28;20043;-70
2022/06/29 05:11:29;;;;;;;5.13;3.80;;;17.60;99.90;;;;;;4998057;28;20056;-69
2022/06/29 05:13:57;;;;;;;6.97;4.78;;;17.60;99.90;;;;;;4996560;28;20129;-65
2022/06/29 05:16:23;;;;;;;7.35;4.15;;;17.60;99.90;;;;;;4994529;28;20041;-71
2022/06/29 05:18:51;;;;;;;14.40;4.10;;;17.60;99.90;;;;;;5005330;28;20061;-66
2022/06/29 05:21:19;;;;;;;10.82;4.20;;;17.50;99.90;;;;;;5001801;28;20496;-67
2022/06/29 05:23:47;;;;;;;5.07;3.72;;;17.50;99.90;;;;;;4987085;28;20068;-66
2022/06/29 05:26:14;;;;;;;6.07;4.63;;;17.50;99.90;;;;;;4992847;28;20136;-66
2022/06/29 05:28:41;;;;;;;8.85;3.97;;;17.50;99.90;;;;;;4994474;28;20169;-68
2022/06/29 05:31:08;;;;;;;9.60;4.22;;;17.40;99.90;;;;;;4992206;28;20050;-65
2022/06/29 05:33:36;;;;;;;7.22;3.95;;;17.40;99.90;;;;;;4986871;28;20088;-65
2022/06/29 05:36:05;;;;;;;5.88;4.05;;;17.40;99.90;;;;;;4992960;28;20097;-65
2022/06/29 05:38:32;;;;;;;8.13;3.85;;;17.40;99.90;;;;;;5001032;28;20053;-70
2022/06/29 05:41:02;;;;;;;5.63;3.53;;;17.40;99.90;;;;;;4996882;28;20426;-68
2022/06/29 05:43:30;;;;;;;6.63;4.50;;;17.40;99.90;;;;;;4992871;28;20145;-70
2022/06/29 05:45:58;;;;;;;8.10;4.10;;;17.40;99.90;;;;;;4997944;28;20045;-66
2022/06/29 05:48:25;;;;;;;7.80;3.78;;;17.40;99.90;;;;;;4991710;28;20065;-72
2022/06/29 05:50:52;;;;;;;6.93;3.80;;;17.40;99.90;;;;;;4998838;28;20069;-66
2022/06/29 05:53:19;;;;;;;6.50;4.13;;;17.50;99.90;;;;;;4991693;28;20068;-68
2022/06/29 05:55:46;;;;;;;10.25;4.28;;;17.50;99.90;;;;;;4997847;28;20076;-68
2022/06/29 05:58:18;;;;;;;4.38;3.35;;;17.50;99.90;;;;;;5007135;28;20815;-66
2022/06/29 06:00:47;;;;;;;8.50;4.38;;;17.60;99.90;;;;;;4996778;28;20128;-67
2022/06/29 06:03:15;;;;;;;7.30;3.80;;;17.60;99.90;;;;;;5014431;28;20115;-73
2022/06/29 06:05:42;;;;;;;3.95;3.42;;;17.60;99.90;;;;;;4987585;28;20510;-69
2022/06/29 06:08:09;;;;;;;4.22;3.72;;;17.60;99.90;;;;;;5004280;28;20062;-65
2022/06/29 06:10:36;;;;;;;5.30;3.88;;;17.60;99.90;;;;;;4991141;28;20105;-72
2022/06/29 06:13:05;;;;;;;9.13;4.93;;;17.50;99.90;;;;;;5003225;28;20061;-65
2022/06/29 06:15:33;;;;;;;3.90;3.45;;;17.50;99.90;;;;;;4990252;28;20141;-66
2022/06/29 06:18:01;;;;;;;6.22;3.50;;;17.50;99.90;;;;;;4997657;28;20126;-73
2022/06/29 06:20:29;;;;;;;11.55;4.05;;;17.50;99.90;;;;;;5002383;28;20123;-67
2022/06/29 06:22:56;;;;;;;6.85;5.00;;;17.50;99.90;;;;;;4989435;28;20167;-67
2022/06/29 06:25:29;;;;;;;4.97;3.35;;;17.60;99.90;;;;;;4987306;28;20198;-68
2022/06/29 06:27:56;;;;;;;9.07;5.07;;;17.70;99.90;;;;;;5003844;28;20061;-67
2022/06/29 06:30:23;;;;;;;6.28;3.70;;;17.70;99.90;;;;;;4998095;28;20070;-69
2022/06/29 06:32:50;;;;;;;5.63;4.82;;;17.70;99.90;;;;;;4996852;28;20153;-68
2022/06/29 06:35:19;;;;;;;9.05;4.70;;;17.80;99.90;;;;;;5007339;28;20053;-71
2022/06/29 06:37:47;;;;;;;8.77;3.63;;;17.80;99.90;;;;;;4995798;28;20061;-69
2022/06/29 06:42:59;;;;;;;9.85;4.57;;;17.80;99.90;;;;;;5003584;28;20432;-72
2022/06/29 06:45:27;;;;;;;6.03;3.90;;;17.90;99.90;;;;;;4996579;28;20077;-67
2022/06/29 06:47:54;;;;;;;6.03;3.30;;;18.00;99.90;;;;;;5004918;28;20073;-68
2022/06/29 06:50:21;;;;;;;7.35;3.67;;;18.10;99.90;;;;;;4989937;28;20050;-65
2022/06/29 06:52:48;;;;;;;11.98;3.92;;;18.10;99.90;;;;;;5002818;28;20049;-65
2022/06/29 06:55:15;;;;;;;7.95;3.50;;;18.20;99.90;;;;;;5000718;28;20384;-66
2022/06/29 06:57:43;;;;;;;7.70;4.43;;;18.20;99.90;;;;;;4987851;28;20038;-67
2022/06/29 07:00:10;;;;;;;5.32;4.45;;;18.20;99.90;;;;;;4999561;28;20089;-69
2022/06/29 07:02:38;;;;;;;6.03;3.60;;;18.30;99.90;;;;;;5003895;28;20125;-65
2022/06/29 07:05:06;;;;;;;5.43;3.90;;;18.30;99.90;;;;;;4993145;28;20131;-68
2022/06/29 07:07:33;;;;;;;6.28;3.00;;;18.20;99.90;;;;;;4991941;28;20637;-65
2022/06/29 07:10:00;;;;;;;6.43;3.60;;;18.20;99.90;;;;;;5001524;28;20500;-66
2022/06/29 07:12:27;;;;;;;5.90;3.17;;;18.30;99.90;;;;;;4999178;28;20042;-68
2022/06/29 07:14:54;;;;;;;14.82;5.93;;;18.40;99.90;;;;;;4992011;28;20141;-68
2022/06/29 07:17:21;;;;;;;5.75;4.20;;;18.40;99.90;;;;;;4998974;28;20125;-66
2022/06/29 07:19:48;;;;;;;8.25;3.58;;;18.50;99.90;;;;;;4994103;28;20710;-66
2022/06/29 07:22:15;;;;;;;5.60;2.88;;;18.50;99.90;;;;;;4994331;28;20144;-65
2022/06/29 07:24:42;;;;;;;4.30;3.25;;;18.60;99.90;;;;;;4994658;28;20054;-65
2022/06/29 07:27:10;;;;;;;5.28;3.67;;;18.60;99.90;;;;;;4991801;28;20100;-65
2022/06/29 07:29:37;;;;;;;5.05;3.38;;;18.50;99.90;;;;;;4996760;28;20099;-67
2022/06/29 07:32:05;;;;;;;8.82;3.97;;;18.50;99.90;;;;;;4994730;28;20053;-65
2022/06/29 07:34:32;;;;;;;8.45;4.03;;;18.50;99.90;;;;;;5007807;28;20475;-66
2022/06/29 07:36:59;;;;;;;5.10;3.03;;;18.50;99.90;;;;;;4992738;28;20596;-69
2022/06/29 07:39:30;;;;;;;7.85;4.95;;;18.50;99.90;;;;;;4996591;28;20105;-66
2022/06/29 07:42:11;;;;;;;5.72;4.10;;;18.40;99.90;;;;;;4996252;28;20053;-69
2022/06/29 07:44:38;;;;;;;5.30;3.90;;;18.50;99.90;;;;;;4998927;28;20064;-69
2022/06/29 07:47:05;;;;;;;8.10;4.85;;;18.50;99.90;;;;;;5010735;28;20057;-67
2022/06/29 07:49:32;;;;;;;7.13;4.53;;;18.50;99.90;;;;;;4998953;28;20046;-70
2022/06/29 07:51:59;;;;;;;6.97;4.05;;;18.60;99.90;;;;;;4997533;28;20050;-67
2022/06/29 07:54:27;;;;;;;4.43;3.30;;;18.60;99.90;;;;;;4995557;28;20451;-65
2022/06/29 07:56:54;;;;;;;8.75;4.43;;;18.70;99.90;;;;;;5002350;28;20050;-65
2022/06/29 07:59:41;;;;;;;5.32;3.50;;;18.70;99.90;;;;;;4993079;28;22441;-65
2022/06/29 08:02:08;;;;;;;6.50;3.55;;;18.80;99.90;;;;;;5000329;28;20192;-65
2022/06/29 08:04:35;;;;;;;4.47;3.72;;;18.80;99.90;;;;;;5001014;28;20050;-66
2022/06/29 08:07:22;;;;;;;5.28;3.65;;;18.80;99.90;;;;;;5002084;28;20136;-70
2022/06/29 08:09:49;;;;;;;7.75;4.07;;;18.80;99.90;;;;;;4997260;28;20099;-72
2022/06/29 08:12:16;;;;;;;5.32;2.88;;;18.70;99.90;;;;;;5003136;28;20046;-67
2022/06/29 08:14:44;;;;;;;7.80;4.20;;;18.80;99.90;;;;;;5004870;28;20830;-66
2022/06/29 08:17:11;;;;;;;5.05;3.70;;;18.80;99.90;;;;;;5002455;28;20095;-70
2022/06/29 08:19:38;;;;;;;8.98;6.15;;;18.80;99.90;;;;;;4994856;28;20056;-65
2022/06/29 08:22:05;;;;;;;9.05;3.95;;;18.80;99.90;;;;;;5001121;28;20360;-70
2022/06/29 08:24:32;;;;;;;7.30;3.70;;;18.80;99.90;;;;;;4996116;28;20053;-65
2022/06/29 08:26:59;;;;;;;11.82;4.63;;;18.70;99.90;;;;;;5002537;28;20817;-73
2022/06/29 08:29:46;;;;;;;5.22;3.65;;;18.70;99.90;;;;;;5015857;28;20133;-66
2022/06/29 08:32:13;;;;;;;5.70;4.00;;;18.90;99.90;;;;;;5014372;28;20575;-74
2022/06/29 08:34:40;;;;;;;5.72;3.05;;;18.80;99.90;;;;;;5019704;28;20136;-67
2022/06/29 08:37:07;;;;;;;3.55;3.25;;;18.90;99.90;;;;;;5015992;28;20426;-67
2022/06/29 08:39:35;;;;;;;4.78;3.97;;;19.00;99.90;;;;;;5011917;28;20107;-67
2022/06/29 08:42:04;;;;;;;9.85;6.75;;;19.10;99.90;;;;;;5015366;28;20514;-67
2022/06/29 08:44:36;;;;;;;4.13;3.72;;;19.10;99.90;;;;;;5015271;28;20127;-65
2022/06/29 08:47:04;;;;;;;6.38;3.53;;;19.10;99.90;;;;;;5019752;28;20052;-66
2022/06/29 08:49:32;;;;;;;4.20;3.17;;;19.20;99.90;;;;;;5029986;28;20463;-69
2022/06/29 08:52:04;;;;;;;6.07;3.60;;;19.30;99.90;;;;;;5016726;28;20041;-71
2022/06/29 08:54:35;;;;;;;6.35;5.20;;;19.30;99.90;;;;;;5024642;28;20136;-68
2022/06/29 08:57:04;;;;;;;5.60;3.95;;;19.20;99.90;;;;;;5021926;28;20057;-76
2022/06/29 08:59:34;;;;;;;4.60;4.00;;;19.20;99.90;;;;;;5011382;28;20096;-67
2022/06/29 09:02:22;;;;;;;7.00;4.00;;;19.00;99.90;;;;;;5023624;28;20396;-67
2022/06/29 09:04:50;;;;;;;5.35;3.42;;;19.00;99.90;;;;;;5007984;28;20054;-68
2022/06/29 09:07:17;;;;;;;6.38;4.22;;;19.10;99.90;;;;;;5026110;28;20100;-65
2022/06/29 09:10:01;;;;;;;6.65;3.67;;;19.10;99.90;;;;;;5013467;28;20095;-66
2022/06/29 09:12:30;;;;;;;8.00;3.58;;;19.30;99.90;;;;;;5007743;28;20790;-66
2022/06/29 09:14:58;;;;;;;6.60;4.50;;;19.40;99.90;;;;;;4988677;28;20054;-66
2022/06/29 09:17:25;;;;;;;8.68;5.70;;;19.40;99.90;;;;;;4993680;28;20046;-73
2022/06/29 09:19:53;;;;;;;8.88;5.32;;;19.40;99.90;;;;;;4996510;28;20057;-65
2022/06/29 09:22:41;;;;;;;5.47;3.47;;;19.50;99.90;;;;;;4999861;28;20140;-68
2022/06/29 09:25:28;;;;;;;4.43;3.60;;;19.60;99.90;;;;;;5001349;28;20050;-65
2022/06/29 09:27:56;;;;;;;6.47;2.90;;;19.70;99.90;;;;;;4990937;28;20066;-67
2022/06/29 09:30:29;;;;;;;12.25;3.60;;;19.80;99.90;;;;;;4996783;28;20042;-67
2022/06/29 09:33:04;;;;;;;4.50;3.63;;;19.70;99.90;;;;;;4994591;28;20060;-66
2022/06/29 09:35:35;;;;;;;4.82;3.50;;;19.60;99.90;;;;;;4995328;28;20050;-69
2022/06/29 09:38:22;;;;;;;4.78;3.58;;;19.50;99.90;;;;;;5006278;28;20073;-69
2022/06/29 09:41:09;;;;;;;7.57;3.78;;;19.50;99.90;;;;;;5007464;28;20722;-71
2022/06/29 09:43:41;;;;;;;6.68;3.55;;;19.40;99.90;;;;;;5009387;28;20073;-67
2022/06/29 09:46:11;;;;;;;5.10;3.03;;;19.50;99.90;;;;;;4996795;28;20069;-65
2022/06/29 09:48:40;;;;;;;6.20;3.22;;;19.40;99.90;;;;;;4992245;28;20396;-71
2022/06/29 09:53:58;;;;;;;12.02;4.63;;;19.40;99.90;;;;;;5006773;28;20050;-68
2022/06/29 09:56:29;;;;;;;6.03;4.72;;;19.50;99.90;;;;;;4999269;28;20769;-66
2022/06/29 09:59:01;;;;;;;6.60;4.93;;;19.40;99.90;;;;;;5007733;28;20631;-66
2022/06/29 10:04:15;;;;;;;6.93;4.40;;;19.60;99.90;;;;;;4998650;28;20050;-65
2022/06/29 10:06:44;;;;;;;10.75;3.88;;;19.80;99.90;;;;;;5010701;28;20144;-65
2022/06/29 10:09:11;;;;;;;7.25;4.18;;;19.90;99.90;;;;;;4996973;28;20050;-71
2022/06/29 10:14:42;;;;;;;4.45;3.47;;;19.90;99.90;;;;;;5011403;28;21379;-71
2022/06/29 10:17:12;;;;;;;7.53;4.53;;;19.90;99.90;;;;;;4997282;28;20147;-65
2022/06/29 10:19:55;;;;;;;6.82;4.28;;;19.90;99.90;;;;;;4994930;28;20072;-74
2022/06/29 10:22:22;;;;;;;8.38;5.07;;;20.00;99.90;;;;;;5000934;28;20080;-67
2022/06/29 10:25:10;;;;;;;5.15;3.97;;;20.00;99.90;;;;;;4998753;28;20058;-66
2022/06/29 10:27:37;;;;;;;5.88;4.38;;;20.00;99.90;;;;;;5001332;28;20395;-65
2022/06/29 10:30:21;;;;;;;3.85;3.55;;;20.10;99.90;;;;;;4998598;28;20373;-68
2022/06/29 10:32:52;;;;;;;11.82;4.80;;;20.30;99.90;;;;;;4999321;28;20042;-65
2022/06/29 10:35:24;;;;;;;7.82;4.75;;;20.40;99.90;;;;;;4999420;28;20058;-65
2022/06/29 10:37:54;;;;;;;8.95;5.13;;;20.50;99.90;;;;;;5003564;28;20053;-66
2022/06/29 10:40:23;;;;;;;;;;;20.40;99.90;;;;;;5001387;28;20081;-70
2022/06/29 10:43:08;;;;;;;4.45;4.05;;;20.40;99.90;;;;;;5002146;28;19929;-73
2022/06/29 10:45:43;;;;;;;6.72;4.32;;;20.40;99.90;;;;;;5013999;28;20057;-67
2022/06/29 10:48:12;;;;;;;5.82;4.95;;;20.50;99.90;;;;;;4998042;28;20084;-67
2022/06/29 10:50:41;;;;;;;7.67;4.37;;;20.60;99.90;;;;;;5000789;28;20600;-71
2022/06/29 10:53:10;;;;;;;6.72;4.65;;;20.40;99.90;;;;;;4996293;28;20288;-66
2022/06/29 10:55:45;;;;;;;4.97;3.97;;;20.50;99.90;;;;;;4991329;28;20429;-66
2022/06/29 10:58:13;;;;;;;7.03;3.88;;;20.50;99.90;;;;;;5001861;28;20498;-70
2022/06/29 11:00:48;;;;;;;5.85;3.78;;;20.60;99.90;;;;;;4992970;28;20113;-70
2022/06/29 11:03:15;;;;;;;6.35;5.10;;;20.60;99.90;;;;;;4996063;28;20081;-66
2022/06/29 11:14:05;;;;;;;5.25;4.75;;;20.20;99.90;;;;;;5019305;28;20411;-69
2022/06/29 11:16:36;;;;;;;5.35;4.65;;;20.30;99.90;;;;;;5016650;28;20111;-68
2022/06/29 11:19:04;;;;;;;7.72;5.25;;;20.20;99.90;;;;;;5020725;28;20142;-66
2022/06/29 11:21:32;;;;;;;6.93;4.60;;;20.20;99.90;;;;;;5019551;28;20058;-66
2022/06/29 11:24:03;;;;;;;8.82;5.22;;;20.20;99.90;;;;;;5025787;28;20048;-67
2022/06/29 11:26:34;;;;;;;6.40;5.78;;;20.20;99.90;;;;;;5021651;28;20049;-69
2022/06/29 11:29:02;;;;;;;9.02;5.32;;;20.30;99.90;;;;;;5013049;28;20050;-71
2022/06/29 11:31:29;;;;;;;7.00;5.05;;;20.10;99.90;;;;;;5014104;28;20037;-67
2022/06/29 11:33:57;;;;;;;5.53;4.07;;;20.30;99.90;;;;;;4996318;28;20381;-66
2022/06/29 11:36:27;;;;;;;7.30;5.00;;;20.30;99.90;;;;;;4995523;28;20042;-72
2022/06/29 11:39:04;;;;;;;7.50;4.35;;;20.40;99.90;;;;;;4998644;28;20045;-66
2022/06/29 11:44:27;;;;;;;6.25;4.72;;;20.40;99.90;;;;;;4995986;28;20747;-66
2022/06/29 11:46:56;;;;;;;6.47;4.22;;;20.50;99.90;;;;;;4987736;28;20077;-74
2022/06/29 11:49:39;;;;;;;7.30;4.03;;;20.40;99.90;;;;;;4990468;28;20049;-71
2022/06/29 11:52:13;;;;;;;9.82;4.43;;;20.40;99.90;;;;;;4993203;28;20049;-66
2022/06/29 11:54:49;;;;;;;7.20;4.50;;;20.40;99.90;;;;;;4999267;28;20605;-66
2022/06/29 11:57:18;;;;;;;7.93;5.15;;;20.50;99.90;;;;;;4996034;28;20073;-67
2022/06/29 11:59:47;;;;;;;8.95;5.00;;;20.50;99.90;;;;;;5003742;28;20054;-68
2022/06/29 12:02:16;;;;;;;7.97;4.75;;;20.50;99.90;;;;;;5008419;28;20132;-67
2022/06/29 12:04:45;;;;;;;5.07;4.57;;;20.30;99.90;;;;;;4990186;28;20061;-66
2022/06/29 12:07:16;;;;;;;6.30;4.93;;;20.30;99.90;;;;;;4998647;28;20069;-66
2022/06/29 12:09:51;;;;;;;6.13;5.13;;;20.20;99.90;;;;;;4997617;28;20050;-71
2022/06/29 12:12:18;;;;;;;8.50;5.03;;;20.30;99.90;;;;;;5001839;28;20052;-66
2022/06/29 12:14:45;;;;;;;7.78;4.60;;;20.20;99.90;;;;;;5000024;28;20053;-70
2022/06/29 12:17:13;;;;;;;6.38;4.30;;;20.30;99.90;;;;;;4998059;28;20043;-66
2022/06/29 12:19:42;;;;;;;6.35;5.00;;;20.50;99.90;;;;;;4993087;28;20172;-66
2022/06/29 12:22:09;;;;;;;6.45;5.68;;;20.60;99.90;;;;;;4992873;28;20042;-65
2022/06/29 12:24:36;;;;;;;7.05;4.07;;;20.80;99.90;;;;;;5004727;28;20046;-66
2022/06/29 12:27:04;;;;;;;6.93;4.90;;;20.80;99.90;;;;;;5010334;28;20046;-66
2022/06/29 12:29:31;;;;;;;8.15;5.50;;;20.70;99.90;;;;;;4996841;28;20053;-68
2022/06/29 12:31:58;;;;;;;5.78;4.40;;;20.50;99.90;;;;;;5009587;28;20046;-67
2022/06/29 12:34:25;;;;;;;9.30;6.28;;;20.40;99.90;;;;;;5000497;28;20385;-69
2022/06/29 12:36:57;;;;;;;7.55;4.68;;;20.30;99.90;;;;;;4992589;28;20058;-66
2022/06/29 12:39:25;;;;;;;6.93;4.60;;;20.30;99.90;;;;;;4990228;28;20204;-68
2022/06/29 12:41:53;;;;;;;8.27;4.40;;;20.40;99.90;;;;;;5000018;28;20039;-65
2022/06/29 12:44:20;;;;;;;5.78;5.18;;;20.20;99.90;;;;;;5001650;28;20124;-67
2022/06/29 12:46:47;;;;;;;5.20;4.25;;;20.20;99.90;;;;;;4994857;28;20117;-69
2022/06/29 12:49:14;;;;;;;6.50;3.70;;;20.10;99.90;;;;;;5006141;28;20057;-66
2022/06/29 12:51:41;;;;;;;5.28;4.45;;;20.20;99.90;;;;;;4992696;28;20512;-74
2022/06/29 12:54:08;;;;;;;7.72;5.45;;;20.50;99.90;;;;;;4998334;28;20042;-71
2022/06/29 12:56:35;;;;;;;7.55;5.07;;;20.50;99.90;;;;;;5007540;28;20042;-66
2022/06/29 12:59:03;;;;;;;8.27;4.35;;;20.40;99.90;;;;;;5009903;28;20045;-66
2022/06/29 13:01:30;;;;;;;7.85;4.43;;;20.50;99.90;;;;;;4999777;28;20128;-70
2022/06/29 13:04:02;;;;;;;10.02;5.53;;;20.60;99.90;;;;;;4999669;28;20501;-66
2022/06/29 13:06:29;;;;;;;4.07;3.67;;;20.80;99.90;;;;;;4991642;28;20050;-66
2022/06/29 13:08:56;;;;;;;4.35;3.95;;;20.90;99.90;;;;;;4999152;28;20046;-72
2022/06/29 13:11:23;;;;;;;6.30;3.75;;;21.10;99.90;;;;;;5001537;28;20046;-68
2022/06/29 13:13:50;;;;;;;10.45;5.57;;;21.10;99.90;;;;;;5013859;28;20041;-69
2022/06/29 13:16:18;;;;;;;4.75;4.10;;;21.10;99.90;;;;;;5006979;28;20116;-72
2022/06/29 13:18:46;;;;;;;9.52;4.35;;;21.20;99.90;;;;;;4991510;28;20050;-65
2022/06/29 13:21:13;;;;;;;5.03;4.05;;;21.30;99.90;;;;;;4996476;28;20065;-65